sensor_id;sensor_type;location;lat;lon;timestamp;P1;durP1;ratioP1;P2;durP2;ratioP2
6374;SDS011;35400;45.472;-122.822;2022-11-15T00:00:40;4.37;;;3.63;;
6374;SDS011;35400;45.472;-122.822;2022-11-15T00:03:27;5.43;;;3.50;;
6374;SDS011;35400;45.472;-122.822;2022-11-15T00:06:12;4.67;;;3.80;;
6374;SDS011;35400;45.472;-122.822;2022-11-15T00:08:58;5.50;;;3.90;;
6374;SDS011;35400;45.472;-122.822;2022-11-15T00:11:44;4.20;;;3.80;;
6374;SDS011;35400;45.472;-122.822;2022-11-15T00:14:29;4.80;;;4.10;;
6374;SDS011;35400;45.472;-122.822;2022-11-15T00:17:15;5.00;;;4.27;;
6374;SDS011;35400;45.472;-122.822;2022-11-15T00:20:01;4.33;;;3.93;;
6374;SDS011;35400;45.472;-122.822;2022-11-15T00:22:46;4.30;;;3.80;;
6374;SDS011;35400;45.472;-122.822;2022-11-15T00:25:32;5.17;;;4.20;;
6374;SDS011;35400;45.472;-122.822;2022-11-15T00:28:17;4.57;;;3.90;;
6374;SDS011;35400;45.472;-122.822;2022-11-15T00:31:03;4.20;;;3.80;;
6374;SDS011;35400;45.472;-122.822;2022-11-15T00:33:50;4.90;;;4.10;;
6374;SDS011;35400;45.472;-122.822;2022-11-15T00:36:35;6.03;;;4.03;;
6374;SDS011;35400;45.472;-122.822;2022-11-15T00:39:21;4.10;;;3.63;;
6374;SDS011;35400;45.472;-122.822;2022-11-15T00:42:06;3.93;;;3.53;;
6374;SDS011;35400;45.472;-122.822;2022-11-15T00:44:51;4.47;;;3.80;;
6374;SDS011;35400;45.472;-122.822;2022-11-15T00:47:36;4.20;;;3.80;;
6374;SDS011;35400;45.472;-122.822;2022-11-15T00:50:22;6.73;;;4.70;;
6374;SDS011;35400;45.472;-122.822;2022-11-15T00:53:07;4.27;;;3.60;;
6374;SDS011;35400;45.472;-122.822;2022-11-15T00:55:53;4.20;;;3.67;;
6374;SDS011;35400;45.472;-122.822;2022-11-15T00:58:38;5.73;;;4.10;;
6374;SDS011;35400;45.472;-122.822;2022-11-15T01:01:23;6.10;;;4.33;;
6374;SDS011;35400;45.472;-122.822;2022-11-15T01:04:08;7.13;;;4.27;;
6374;SDS011;35400;45.472;-122.822;2022-11-15T01:06:54;5.23;;;4.20;;
6374;SDS011;35400;45.472;-122.822;2022-11-15T01:09:39;4.73;;;4.23;;
6374;SDS011;35400;45.472;-122.822;2022-11-15T01:12:24;5.50;;;4.23;;
6374;SDS011;35400;45.472;-122.822;2022-11-15T01:15:10;4.57;;;4.00;;
6374;SDS011;35400;45.472;-122.822;2022-11-15T01:17:56;5.33;;;4.70;;
6374;SDS011;35400;45.472;-122.822;2022-11-15T01:20:41;5.53;;;4.53;;
6374;SDS011;35400;45.472;-122.822;2022-11-15T01:23:26;8.07;;;5.40;;
6374;SDS011;35400;45.472;-122.822;2022-11-15T01:26:13;5.80;;;4.83;;
6374;SDS011;35400;45.472;-122.822;2022-11-15T01:29:00;7.50;;;5.33;;
6374;SDS011;35400;45.472;-122.822;2022-11-15T01:31:45;6.67;;;5.03;;
6374;SDS011;35400;45.472;-122.822;2022-11-15T01:34:31;5.70;;;4.63;;
6374;SDS011;35400;45.472;-122.822;2022-11-15T01:37:16;5.50;;;4.80;;
6374;SDS011;35400;45.472;-122.822;2022-11-15T01:40:01;5.83;;;4.80;;
6374;SDS011;35400;45.472;-122.822;2022-11-15T01:42:47;5.27;;;4.63;;
6374;SDS011;35400;45.472;-122.822;2022-11-15T01:45:32;6.27;;;5.20;;
6374;SDS011;35400;45.472;-122.822;2022-11-15T01:48:17;5.20;;;4.70;;
6374;SDS011;35400;45.472;-122.822;2022-11-15T01:51:05;5.30;;;4.57;;
6374;SDS011;35400;45.472;-122.822;2022-11-15T01:53:55;5.93;;;5.00;;
6374;SDS011;35400;45.472;-122.822;2022-11-15T01:56:44;5.87;;;4.83;;
6374;SDS011;35400;45.472;-122.822;2022-11-15T01:59:33;4.83;;;4.20;;
6374;SDS011;35400;45.472;-122.822;2022-11-15T02:02:20;6.83;;;4.73;;
6374;SDS011;35400;45.472;-122.822;2022-11-15T02:05:10;8.93;;;4.83;;
6374;SDS011;35400;45.472;-122.822;2022-11-15T02:07:56;6.10;;;4.80;;
6374;SDS011;35400;45.472;-122.822;2022-11-15T02:10:41;6.20;;;4.63;;
6374;SDS011;35400;45.472;-122.822;2022-11-15T02:13:29;15.03;;;12.00;;
6374;SDS011;35400;45.472;-122.822;2022-11-15T02:22:33;8.07;;;6.03;;
6374;SDS011;35400;45.472;-122.822;2022-11-15T02:34:35;8.70;;;7.33;;
6374;SDS011;35400;45.472;-122.822;2022-11-15T02:38:02;9.40;;;7.13;;
6374;SDS011;35400;45.472;-122.822;2022-11-15T02:40:54;7.63;;;4.70;;
6374;SDS011;35400;45.472;-122.822;2022-11-15T02:43:51;6.93;;;5.10;;
6374;SDS011;35400;45.472;-122.822;2022-11-15T02:46:54;4.73;;;4.10;;
6374;SDS011;35400;45.472;-122.822;2022-11-15T02:50:02;6.10;;;5.03;;
6374;SDS011;35400;45.472;-122.822;2022-11-15T02:52:52;5.27;;;4.70;;
6374;SDS011;35400;45.472;-122.822;2022-11-15T02:55:38;5.10;;;4.53;;
6374;SDS011;35400;45.472;-122.822;2022-11-15T03:04:45;6.33;;;4.60;;
6374;SDS011;35400;45.472;-122.822;2022-11-15T03:07:37;6.17;;;5.47;;
6374;SDS011;35400;45.472;-122.822;2022-11-15T03:16:45;5.30;;;4.40;;
6374;SDS011;35400;45.472;-122.822;2022-11-15T03:19:40;5.80;;;4.77;;
6374;SDS011;35400;45.472;-122.822;2022-11-15T03:22:33;6.17;;;4.40;;
6374;SDS011;35400;45.472;-122.822;2022-11-15T03:25:25;4.80;;;4.27;;
6374;SDS011;35400;45.472;-122.822;2022-11-15T03:28:14;6.97;;;5.00;;
6374;SDS011;35400;45.472;-122.822;2022-11-15T03:31:05;5.23;;;4.70;;
6374;SDS011;35400;45.472;-122.822;2022-11-15T03:34:14;5.30;;;4.17;;
6374;SDS011;35400;45.472;-122.822;2022-11-15T03:37:04;8.07;;;5.57;;
6374;SDS011;35400;45.472;-122.822;2022-11-15T03:39:51;10.07;;;6.90;;
6374;SDS011;35400;45.472;-122.822;2022-11-15T03:45:46;5.43;;;4.67;;
6374;SDS011;35400;45.472;-122.822;2022-11-15T03:48:47;6.17;;;4.50;;
6374;SDS011;35400;45.472;-122.822;2022-11-15T03:51:35;6.47;;;4.53;;
6374;SDS011;35400;45.472;-122.822;2022-11-15T03:54:21;5.60;;;4.30;;
6374;SDS011;35400;45.472;-122.822;2022-11-15T03:57:06;5.23;;;3.57;;
6374;SDS011;35400;45.472;-122.822;2022-11-15T03:59:52;5.47;;;4.27;;
6374;SDS011;35400;45.472;-122.822;2022-11-15T04:02:37;5.03;;;4.03;;
6374;SDS011;35400;45.472;-122.822;2022-11-15T04:05:22;5.83;;;4.43;;
6374;SDS011;35400;45.472;-122.822;2022-11-15T04:08:08;4.77;;;3.93;;
6374;SDS011;35400;45.472;-122.822;2022-11-15T04:10:53;5.40;;;4.23;;
6374;SDS011;35400;45.472;-122.822;2022-11-15T04:13:39;6.83;;;4.87;;
6374;SDS011;35400;45.472;-122.822;2022-11-15T04:16:24;6.80;;;4.63;;
6374;SDS011;35400;45.472;-122.822;2022-11-15T04:19:10;4.83;;;4.23;;
6374;SDS011;35400;45.472;-122.822;2022-11-15T04:22:16;4.40;;;4.00;;
6374;SDS011;35400;45.472;-122.822;2022-11-15T04:25:20;4.23;;;3.83;;
6374;SDS011;35400;45.472;-122.822;2022-11-15T04:28:06;6.17;;;4.30;;
6374;SDS011;35400;45.472;-122.822;2022-11-15T04:30:51;4.70;;;4.20;;
6374;SDS011;35400;45.472;-122.822;2022-11-15T04:33:37;5.77;;;4.40;;
6374;SDS011;35400;45.472;-122.822;2022-11-15T04:36:22;5.17;;;4.30;;
6374;SDS011;35400;45.472;-122.822;2022-11-15T04:39:26;4.53;;;3.83;;
6374;SDS011;35400;45.472;-122.822;2022-11-15T04:42:11;5.67;;;3.87;;
6374;SDS011;35400;45.472;-122.822;2022-11-15T04:44:57;5.87;;;4.00;;
6374;SDS011;35400;45.472;-122.822;2022-11-15T04:47:45;6.33;;;4.60;;
6374;SDS011;35400;45.472;-122.822;2022-11-15T04:50:31;6.17;;;4.53;;
6374;SDS011;35400;45.472;-122.822;2022-11-15T04:53:17;6.67;;;4.10;;
6374;SDS011;35400;45.472;-122.822;2022-11-15T04:56:02;5.70;;;4.60;;
6374;SDS011;35400;45.472;-122.822;2022-11-15T04:58:50;5.37;;;3.70;;
6374;SDS011;35400;45.472;-122.822;2022-11-15T05:01:36;6.13;;;3.90;;
6374;SDS011;35400;45.472;-122.822;2022-11-15T05:04:21;4.30;;;3.90;;
6374;SDS011;35400;45.472;-122.822;2022-11-15T05:07:07;4.40;;;3.90;;
6374;SDS011;35400;45.472;-122.822;2022-11-15T05:09:52;4.60;;;3.93;;
6374;SDS011;35400;45.472;-122.822;2022-11-15T05:12:37;4.77;;;3.97;;
6374;SDS011;35400;45.472;-122.822;2022-11-15T05:15:22;5.03;;;3.60;;
6374;SDS011;35400;45.472;-122.822;2022-11-15T05:18:10;7.00;;;4.03;;
6374;SDS011;35400;45.472;-122.822;2022-11-15T05:20:55;5.27;;;4.47;;
6374;SDS011;35400;45.472;-122.822;2022-11-15T05:23:47;5.10;;;4.10;;
6374;SDS011;35400;45.472;-122.822;2022-11-15T05:26:32;5.40;;;4.03;;
6374;SDS011;35400;45.472;-122.822;2022-11-15T05:29:17;5.33;;;3.87;;
6374;SDS011;35400;45.472;-122.822;2022-11-15T05:32:03;7.63;;;4.07;;
6374;SDS011;35400;45.472;-122.822;2022-11-15T05:34:50;4.40;;;3.87;;
6374;SDS011;35400;45.472;-122.822;2022-11-15T05:37:35;4.53;;;3.97;;
6374;SDS011;35400;45.472;-122.822;2022-11-15T05:40:21;6.27;;;4.37;;
6374;SDS011;35400;45.472;-122.822;2022-11-15T05:43:06;4.43;;;3.77;;
6374;SDS011;35400;45.472;-122.822;2022-11-15T05:45:52;4.67;;;4.00;;
6374;SDS011;35400;45.472;-122.822;2022-11-15T05:48:38;6.47;;;4.10;;
6374;SDS011;35400;45.472;-122.822;2022-11-15T05:51:26;5.87;;;4.30;;
6374;SDS011;35400;45.472;-122.822;2022-11-15T05:54:13;5.53;;;4.37;;
6374;SDS011;35400;45.472;-122.822;2022-11-15T05:57:00;5.47;;;3.70;;
6374;SDS011;35400;45.472;-122.822;2022-11-15T05:59:45;10.13;;;4.30;;
6374;SDS011;35400;45.472;-122.822;2022-11-15T06:02:31;6.00;;;4.13;;
6374;SDS011;35400;45.472;-122.822;2022-11-15T06:05:16;5.07;;;4.07;;
6374;SDS011;35400;45.472;-122.822;2022-11-15T06:08:01;5.40;;;4.33;;
6374;SDS011;35400;45.472;-122.822;2022-11-15T06:10:47;4.23;;;3.83;;
6374;SDS011;35400;45.472;-122.822;2022-11-15T06:13:33;5.37;;;3.90;;
6374;SDS011;35400;45.472;-122.822;2022-11-15T06:16:18;5.80;;;4.30;;
6374;SDS011;35400;45.472;-122.822;2022-11-15T06:19:05;4.47;;;3.77;;
6374;SDS011;35400;45.472;-122.822;2022-11-15T06:21:51;5.60;;;3.60;;
6374;SDS011;35400;45.472;-122.822;2022-11-15T06:24:36;5.03;;;4.03;;
6374;SDS011;35400;45.472;-122.822;2022-11-15T06:27:22;7.27;;;3.90;;
6374;SDS011;35400;45.472;-122.822;2022-11-15T06:30:08;4.87;;;3.80;;
6374;SDS011;35400;45.472;-122.822;2022-11-15T06:33:00;5.20;;;4.07;;
6374;SDS011;35400;45.472;-122.822;2022-11-15T06:35:47;5.80;;;4.07;;
6374;SDS011;35400;45.472;-122.822;2022-11-15T06:38:32;5.63;;;4.00;;
6374;SDS011;35400;45.472;-122.822;2022-11-15T06:41:17;6.70;;;4.80;;
6374;SDS011;35400;45.472;-122.822;2022-11-15T06:44:02;5.27;;;4.20;;
6374;SDS011;35400;45.472;-122.822;2022-11-15T06:46:48;4.77;;;4.30;;
6374;SDS011;35400;45.472;-122.822;2022-11-15T06:49:33;5.43;;;4.40;;
6374;SDS011;35400;45.472;-122.822;2022-11-15T06:52:18;5.07;;;4.40;;
6374;SDS011;35400;45.472;-122.822;2022-11-15T06:55:03;5.23;;;4.50;;
6374;SDS011;35400;45.472;-122.822;2022-11-15T06:57:49;5.60;;;4.20;;
6374;SDS011;35400;45.472;-122.822;2022-11-15T07:00:35;6.13;;;4.80;;
6374;SDS011;35400;45.472;-122.822;2022-11-15T07:03:21;6.90;;;4.60;;
6374;SDS011;35400;45.472;-122.822;2022-11-15T07:06:07;5.53;;;3.97;;
6374;SDS011;35400;45.472;-122.822;2022-11-15T07:08:53;5.27;;;4.20;;
6374;SDS011;35400;45.472;-122.822;2022-11-15T07:11:38;5.30;;;4.40;;
6374;SDS011;35400;45.472;-122.822;2022-11-15T07:14:23;6.60;;;4.50;;
6374;SDS011;35400;45.472;-122.822;2022-11-15T07:17:09;6.17;;;4.77;;
6374;SDS011;35400;45.472;-122.822;2022-11-15T07:19:54;9.37;;;5.50;;
6374;SDS011;35400;45.472;-122.822;2022-11-15T07:22:40;6.67;;;4.77;;
6374;SDS011;35400;45.472;-122.822;2022-11-15T07:25:25;7.13;;;5.13;;
6374;SDS011;35400;45.472;-122.822;2022-11-15T07:28:10;6.37;;;4.83;;
6374;SDS011;35400;45.472;-122.822;2022-11-15T07:30:56;6.77;;;4.93;;
6374;SDS011;35400;45.472;-122.822;2022-11-15T07:33:42;6.57;;;4.97;;
6374;SDS011;35400;45.472;-122.822;2022-11-15T07:36:27;7.17;;;4.63;;
6374;SDS011;35400;45.472;-122.822;2022-11-15T07:39:12;5.17;;;4.60;;
6374;SDS011;35400;45.472;-122.822;2022-11-15T07:41:59;6.53;;;4.67;;
6374;SDS011;35400;45.472;-122.822;2022-11-15T07:45:03;5.67;;;4.90;;
6374;SDS011;35400;45.472;-122.822;2022-11-15T07:47:49;10.10;;;5.93;;
6374;SDS011;35400;45.472;-122.822;2022-11-15T07:50:35;6.10;;;4.50;;
6374;SDS011;35400;45.472;-122.822;2022-11-15T07:53:20;6.97;;;5.43;;
6374;SDS011;35400;45.472;-122.822;2022-11-15T07:56:06;6.87;;;4.57;;
6374;SDS011;35400;45.472;-122.822;2022-11-15T07:58:52;5.87;;;5.00;;
6374;SDS011;35400;45.472;-122.822;2022-11-15T08:01:37;7.03;;;4.70;;
6374;SDS011;35400;45.472;-122.822;2022-11-15T08:04:22;6.87;;;5.13;;
6374;SDS011;35400;45.472;-122.822;2022-11-15T08:07:08;7.77;;;5.17;;
6374;SDS011;35400;45.472;-122.822;2022-11-15T08:09:53;7.27;;;5.23;;
6374;SDS011;35400;45.472;-122.822;2022-11-15T08:12:39;6.70;;;5.50;;
6374;SDS011;35400;45.472;-122.822;2022-11-15T08:15:24;7.80;;;6.17;;
6374;SDS011;35400;45.472;-122.822;2022-11-15T08:18:12;7.43;;;5.33;;
6374;SDS011;35400;45.472;-122.822;2022-11-15T08:21:00;6.37;;;4.97;;
6374;SDS011;35400;45.472;-122.822;2022-11-15T08:23:45;7.70;;;5.67;;
6374;SDS011;35400;45.472;-122.822;2022-11-15T08:26:31;7.67;;;5.07;;
6374;SDS011;35400;45.472;-122.822;2022-11-15T08:29:16;6.43;;;5.17;;
6374;SDS011;35400;45.472;-122.822;2022-11-15T08:32:02;7.67;;;5.60;;
6374;SDS011;35400;45.472;-122.822;2022-11-15T08:34:49;8.13;;;6.00;;
6374;SDS011;35400;45.472;-122.822;2022-11-15T08:37:34;8.03;;;5.87;;
6374;SDS011;35400;45.472;-122.822;2022-11-15T08:40:20;6.83;;;5.47;;
6374;SDS011;35400;45.472;-122.822;2022-11-15T08:43:06;7.20;;;5.57;;
6374;SDS011;35400;45.472;-122.822;2022-11-15T08:45:51;7.60;;;5.83;;
6374;SDS011;35400;45.472;-122.822;2022-11-15T08:48:39;8.27;;;5.50;;
6374;SDS011;35400;45.472;-122.822;2022-11-15T08:51:25;9.77;;;6.17;;
6374;SDS011;35400;45.472;-122.822;2022-11-15T08:54:10;8.30;;;5.83;;
6374;SDS011;35400;45.472;-122.822;2022-11-15T08:56:55;7.27;;;5.67;;
6374;SDS011;35400;45.472;-122.822;2022-11-15T08:59:41;7.97;;;5.93;;
6374;SDS011;35400;45.472;-122.822;2022-11-15T09:02:26;9.53;;;6.10;;
6374;SDS011;35400;45.472;-122.822;2022-11-15T09:05:11;8.60;;;5.87;;
6374;SDS011;35400;45.472;-122.822;2022-11-15T09:07:56;10.33;;;6.60;;
6374;SDS011;35400;45.472;-122.822;2022-11-15T09:10:42;8.60;;;6.20;;
6374;SDS011;35400;45.472;-122.822;2022-11-15T09:13:27;9.20;;;6.53;;
6374;SDS011;35400;45.472;-122.822;2022-11-15T09:16:12;8.97;;;6.27;;
6374;SDS011;35400;45.472;-122.822;2022-11-15T09:18:59;11.30;;;7.50;;
6374;SDS011;35400;45.472;-122.822;2022-11-15T09:21:45;8.80;;;5.97;;
6374;SDS011;35400;45.472;-122.822;2022-11-15T09:24:30;11.13;;;6.90;;
6374;SDS011;35400;45.472;-122.822;2022-11-15T09:27:15;10.83;;;6.83;;
6374;SDS011;35400;45.472;-122.822;2022-11-15T09:30:01;10.07;;;6.57;;
6374;SDS011;35400;45.472;-122.822;2022-11-15T09:32:46;9.70;;;6.63;;
6374;SDS011;35400;45.472;-122.822;2022-11-15T09:35:32;10.17;;;6.87;;
6374;SDS011;35400;45.472;-122.822;2022-11-15T09:38:17;12.47;;;7.53;;
6374;SDS011;35400;45.472;-122.822;2022-11-15T09:44:10;9.43;;;6.87;;
6374;SDS011;35400;45.472;-122.822;2022-11-15T09:47:14;9.87;;;7.37;;
6374;SDS011;35400;45.472;-122.822;2022-11-15T09:50:12;12.33;;;7.93;;
6374;SDS011;35400;45.472;-122.822;2022-11-15T09:52:54;12.00;;;7.73;;
6374;SDS011;35400;45.472;-122.822;2022-11-15T09:55:21;11.27;;;7.53;;
6374;SDS011;35400;45.472;-122.822;2022-11-15T09:58:02;10.07;;;7.20;;
6374;SDS011;35400;45.472;-122.822;2022-11-15T10:01:12;11.73;;;7.43;;
6374;SDS011;35400;45.472;-122.822;2022-11-15T10:04:01;12.73;;;7.83;;
6374;SDS011;35400;45.472;-122.822;2022-11-15T10:06:28;12.70;;;7.87;;
6374;SDS011;35400;45.472;-122.822;2022-11-15T10:09:02;10.20;;;7.53;;
6374;SDS011;35400;45.472;-122.822;2022-11-15T10:11:32;11.43;;;7.80;;
6374;SDS011;35400;45.472;-122.822;2022-11-15T10:14:05;11.90;;;8.47;;
6374;SDS011;35400;45.472;-122.822;2022-11-15T10:22:16;11.03;;;8.00;;
6374;SDS011;35400;45.472;-122.822;2022-11-15T10:27:40;12.17;;;7.50;;
6374;SDS011;35400;45.472;-122.822;2022-11-15T10:30:12;12.37;;;8.07;;
6374;SDS011;35400;45.472;-122.822;2022-11-15T10:32:42;13.13;;;8.80;;
6374;SDS011;35400;45.472;-122.822;2022-11-15T10:35:18;14.93;;;7.80;;
6374;SDS011;35400;45.472;-122.822;2022-11-15T10:38:06;11.37;;;8.07;;
6374;SDS011;35400;45.472;-122.822;2022-11-15T10:40:36;9.80;;;6.77;;
6374;SDS011;35400;45.472;-122.822;2022-11-15T10:43:10;11.23;;;7.83;;
6374;SDS011;35400;45.472;-122.822;2022-11-15T10:45:41;13.30;;;8.27;;
6374;SDS011;35400;45.472;-122.822;2022-11-15T10:50:42;11.03;;;7.93;;
6374;SDS011;35400;45.472;-122.822;2022-11-15T10:53:13;12.40;;;8.27;;
6374;SDS011;35400;45.472;-122.822;2022-11-15T10:55:48;13.27;;;8.10;;
6374;SDS011;35400;45.472;-122.822;2022-11-15T11:01:19;12.87;;;8.63;;
6374;SDS011;35400;45.472;-122.822;2022-11-15T11:03:59;15.67;;;9.53;;
6374;SDS011;35400;45.472;-122.822;2022-11-15T11:06:28;13.57;;;8.90;;
6374;SDS011;35400;45.472;-122.822;2022-11-15T11:09:00;14.37;;;9.43;;
6374;SDS011;35400;45.472;-122.822;2022-11-15T11:11:46;13.47;;;8.33;;
6374;SDS011;35400;45.472;-122.822;2022-11-15T11:14:20;14.03;;;9.07;;
6374;SDS011;35400;45.472;-122.822;2022-11-15T11:33:29;13.67;;;8.57;;
6374;SDS011;35400;45.472;-122.822;2022-11-15T11:35:59;13.47;;;8.40;;
6374;SDS011;35400;45.472;-122.822;2022-11-15T11:41:43;15.00;;;9.37;;
6374;SDS011;35400;45.472;-122.822;2022-11-15T11:47:01;13.87;;;9.17;;
6374;SDS011;35400;45.472;-122.822;2022-11-15T11:50:11;14.17;;;8.60;;
6374;SDS011;35400;45.472;-122.822;2022-11-15T11:55:41;12.63;;;8.73;;
6374;SDS011;35400;45.472;-122.822;2022-11-15T12:00:54;13.57;;;8.70;;
6374;SDS011;35400;45.472;-122.822;2022-11-15T12:03:29;12.33;;;8.33;;
6374;SDS011;35400;45.472;-122.822;2022-11-15T12:17:25;13.93;;;8.90;;
6374;SDS011;35400;45.472;-122.822;2022-11-15T12:19:58;13.00;;;9.23;;
6374;SDS011;35400;45.472;-122.822;2022-11-15T12:22:43;13.63;;;9.13;;
6374;SDS011;35400;45.472;-122.822;2022-11-15T12:27:46;13.80;;;8.80;;
6374;SDS011;35400;45.472;-122.822;2022-11-15T12:33:39;11.57;;;8.77;;
6374;SDS011;35400;45.472;-122.822;2022-11-15T12:36:34;11.50;;;8.17;;
6374;SDS011;35400;45.472;-122.822;2022-11-15T12:38:59;12.30;;;8.40;;
6374;SDS011;35400;45.472;-122.822;2022-11-15T12:41:31;14.57;;;8.40;;
6374;SDS011;35400;45.472;-122.822;2022-11-15T12:44:00;12.60;;;8.70;;
6374;SDS011;35400;45.472;-122.822;2022-11-15T12:48:56;12.37;;;8.10;;
6374;SDS011;35400;45.472;-122.822;2022-11-15T13:02:41;14.70;;;8.30;;
6374;SDS011;35400;45.472;-122.822;2022-11-15T13:12:55;12.30;;;8.10;;
6374;SDS011;35400;45.472;-122.822;2022-11-15T13:20:55;13.57;;;8.07;;
6374;SDS011;35400;45.472;-122.822;2022-11-15T13:23:22;12.53;;;8.63;;
6374;SDS011;35400;45.472;-122.822;2022-11-15T13:31:18;14.03;;;8.00;;
6374;SDS011;35400;45.472;-122.822;2022-11-15T13:34:13;12.93;;;8.00;;
6374;SDS011;35400;45.472;-122.822;2022-11-15T13:36:44;13.33;;;8.67;;
6374;SDS011;35400;45.472;-122.822;2022-11-15T13:39:31;11.20;;;8.47;;
6374;SDS011;35400;45.472;-122.822;2022-11-15T13:41:59;11.07;;;7.87;;
6374;SDS011;35400;45.472;-122.822;2022-11-15T13:44:29;11.40;;;8.10;;
6374;SDS011;35400;45.472;-122.822;2022-11-15T13:47:12;11.87;;;8.00;;
6374;SDS011;35400;45.472;-122.822;2022-11-15T13:49:41;16.10;;;8.90;;
6374;SDS011;35400;45.472;-122.822;2022-11-15T13:52:10;11.83;;;7.87;;
6374;SDS011;35400;45.472;-122.822;2022-11-15T13:54:43;12.93;;;7.90;;
6374;SDS011;35400;45.472;-122.822;2022-11-15T13:57:21;11.63;;;8.20;;
6374;SDS011;35400;45.472;-122.822;2022-11-15T14:00:00;12.00;;;8.43;;
6374;SDS011;35400;45.472;-122.822;2022-11-15T14:02:37;12.13;;;8.57;;
6374;SDS011;35400;45.472;-122.822;2022-11-15T14:05:12;13.13;;;7.60;;
6374;SDS011;35400;45.472;-122.822;2022-11-15T14:07:55;10.93;;;7.50;;
6374;SDS011;35400;45.472;-122.822;2022-11-15T14:10:28;11.03;;;7.70;;
6374;SDS011;35400;45.472;-122.822;2022-11-15T14:12:57;12.00;;;7.90;;
6374;SDS011;35400;45.472;-122.822;2022-11-15T14:15:27;13.77;;;8.67;;
6374;SDS011;35400;45.472;-122.822;2022-11-15T14:17:55;11.73;;;8.33;;
6374;SDS011;35400;45.472;-122.822;2022-11-15T14:20:32;9.60;;;7.27;;
6374;SDS011;35400;45.472;-122.822;2022-11-15T14:25:52;12.50;;;7.87;;
6374;SDS011;35400;45.472;-122.822;2022-11-15T14:30:51;11.90;;;8.23;;
6374;SDS011;35400;45.472;-122.822;2022-11-15T14:33:29;12.10;;;8.07;;
6374;SDS011;35400;45.472;-122.822;2022-11-15T14:36:03;10.70;;;8.00;;
6374;SDS011;35400;45.472;-122.822;2022-11-15T14:38:39;10.93;;;7.73;;
6374;SDS011;35400;45.472;-122.822;2022-11-15T14:43:49;11.77;;;7.90;;
6374;SDS011;35400;45.472;-122.822;2022-11-15T14:46:17;10.53;;;7.07;;
6374;SDS011;35400;45.472;-122.822;2022-11-15T14:48:45;13.67;;;8.57;;
6374;SDS011;35400;45.472;-122.822;2022-11-15T14:51:17;11.00;;;7.73;;
6374;SDS011;35400;45.472;-122.822;2022-11-15T14:53:45;10.63;;;7.90;;
6374;SDS011;35400;45.472;-122.822;2022-11-15T14:56:12;12.47;;;8.50;;
6374;SDS011;35400;45.472;-122.822;2022-11-15T14:58:40;12.00;;;7.87;;
6374;SDS011;35400;45.472;-122.822;2022-11-15T15:01:18;10.37;;;7.67;;
6374;SDS011;35400;45.472;-122.822;2022-11-15T15:03:47;10.27;;;7.60;;
6374;SDS011;35400;45.472;-122.822;2022-11-15T15:06:17;11.77;;;7.87;;
6374;SDS011;35400;45.472;-122.822;2022-11-15T15:08:45;10.47;;;7.50;;
6374;SDS011;35400;45.472;-122.822;2022-11-15T15:11:14;11.47;;;7.87;;
6374;SDS011;35400;45.472;-122.822;2022-11-15T15:13:47;12.57;;;7.73;;
6374;SDS011;35400;45.472;-122.822;2022-11-15T15:16:14;10.20;;;7.53;;
6374;SDS011;35400;45.472;-122.822;2022-11-15T15:18:41;10.70;;;7.80;;
6374;SDS011;35400;45.472;-122.822;2022-11-15T15:24:02;10.43;;;7.20;;
6374;SDS011;35400;45.472;-122.822;2022-11-15T15:26:28;10.60;;;7.40;;
6374;SDS011;35400;45.472;-122.822;2022-11-15T15:28:59;12.60;;;7.87;;
6374;SDS011;35400;45.472;-122.822;2022-11-15T15:31:26;10.57;;;7.30;;
6374;SDS011;35400;45.472;-122.822;2022-11-15T15:33:53;10.33;;;7.87;;
6374;SDS011;35400;45.472;-122.822;2022-11-15T15:36:20;9.57;;;6.83;;
6374;SDS011;35400;45.472;-122.822;2022-11-15T15:38:47;11.63;;;7.70;;
6374;SDS011;35400;45.472;-122.822;2022-11-15T15:41:14;10.77;;;7.87;;
6374;SDS011;35400;45.472;-122.822;2022-11-15T15:43:42;10.60;;;8.13;;
6374;SDS011;35400;45.472;-122.822;2022-11-15T15:46:11;11.03;;;7.23;;
6374;SDS011;35400;45.472;-122.822;2022-11-15T15:48:42;11.30;;;7.60;;
6374;SDS011;35400;45.472;-122.822;2022-11-15T15:51:10;12.07;;;7.10;;
6374;SDS011;35400;45.472;-122.822;2022-11-15T15:53:37;9.17;;;6.93;;
6374;SDS011;35400;45.472;-122.822;2022-11-15T15:56:05;11.50;;;8.13;;
6374;SDS011;35400;45.472;-122.822;2022-11-15T15:58:35;10.47;;;7.33;;
6374;SDS011;35400;45.472;-122.822;2022-11-15T16:01:02;9.57;;;7.30;;
6374;SDS011;35400;45.472;-122.822;2022-11-15T16:03:29;10.30;;;7.47;;
6374;SDS011;35400;45.472;-122.822;2022-11-15T16:05:55;9.00;;;7.27;;
6374;SDS011;35400;45.472;-122.822;2022-11-15T16:08:24;12.10;;;7.83;;
6374;SDS011;35400;45.472;-122.822;2022-11-15T16:10:55;8.37;;;6.60;;
6374;SDS011;35400;45.472;-122.822;2022-11-15T16:13:22;10.80;;;6.97;;
6374;SDS011;35400;45.472;-122.822;2022-11-15T16:15:52;9.33;;;7.10;;
6374;SDS011;35400;45.472;-122.822;2022-11-15T16:18:20;10.40;;;7.90;;
6374;SDS011;35400;45.472;-122.822;2022-11-15T16:20:48;9.47;;;7.33;;
6374;SDS011;35400;45.472;-122.822;2022-11-15T16:23:18;10.20;;;6.90;;
6374;SDS011;35400;45.472;-122.822;2022-11-15T16:25:50;9.80;;;7.43;;
6374;SDS011;35400;45.472;-122.822;2022-11-15T16:28:23;9.27;;;6.33;;
6374;SDS011;35400;45.472;-122.822;2022-11-15T16:30:58;10.13;;;6.63;;
6374;SDS011;35400;45.472;-122.822;2022-11-15T16:33:30;8.93;;;6.43;;
6374;SDS011;35400;45.472;-122.822;2022-11-15T16:35:57;9.63;;;7.00;;
6374;SDS011;35400;45.472;-122.822;2022-11-15T16:38:24;9.40;;;6.93;;
6374;SDS011;35400;45.472;-122.822;2022-11-15T16:40:51;8.07;;;6.20;;
6374;SDS011;35400;45.472;-122.822;2022-11-15T16:43:18;9.70;;;6.63;;
6374;SDS011;35400;45.472;-122.822;2022-11-15T16:45:45;10.27;;;7.07;;
6374;SDS011;35400;45.472;-122.822;2022-11-15T16:48:24;8.83;;;6.47;;
6374;SDS011;35400;45.472;-122.822;2022-11-15T16:50:56;8.37;;;6.17;;
6374;SDS011;35400;45.472;-122.822;2022-11-15T16:53:24;11.27;;;7.20;;
6374;SDS011;35400;45.472;-122.822;2022-11-15T16:55:53;9.77;;;6.73;;
6374;SDS011;35400;45.472;-122.822;2022-11-15T16:58:21;10.30;;;6.93;;
6374;SDS011;35400;45.472;-122.822;2022-11-15T17:00:54;9.23;;;6.90;;
6374;SDS011;35400;45.472;-122.822;2022-11-15T17:03:22;9.97;;;6.20;;
6374;SDS011;35400;45.472;-122.822;2022-11-15T17:05:50;9.97;;;7.60;;
6374;SDS011;35400;45.472;-122.822;2022-11-15T17:08:17;8.57;;;6.50;;
6374;SDS011;35400;45.472;-122.822;2022-11-15T17:10:46;11.13;;;7.03;;
6374;SDS011;35400;45.472;-122.822;2022-11-15T17:13:13;9.13;;;6.47;;
6374;SDS011;35400;45.472;-122.822;2022-11-15T17:15:40;9.53;;;6.70;;
6374;SDS011;35400;45.472;-122.822;2022-11-15T17:18:11;8.70;;;6.30;;
6374;SDS011;35400;45.472;-122.822;2022-11-15T17:20:40;9.47;;;6.93;;
6374;SDS011;35400;45.472;-122.822;2022-11-15T17:23:14;9.50;;;6.97;;
6374;SDS011;35400;45.472;-122.822;2022-11-15T17:25:42;11.10;;;7.57;;
6374;SDS011;35400;45.472;-122.822;2022-11-15T17:28:09;10.13;;;6.63;;
6374;SDS011;35400;45.472;-122.822;2022-11-15T17:30:39;11.33;;;7.00;;
6374;SDS011;35400;45.472;-122.822;2022-11-15T17:33:08;9.13;;;6.23;;
6374;SDS011;35400;45.472;-122.822;2022-11-15T17:35:35;9.93;;;6.70;;
6374;SDS011;35400;45.472;-122.822;2022-11-15T17:38:02;9.03;;;7.13;;
6374;SDS011;35400;45.472;-122.822;2022-11-15T17:40:28;9.40;;;7.13;;
6374;SDS011;35400;45.472;-122.822;2022-11-15T17:42:55;7.90;;;5.77;;
6374;SDS011;35400;45.472;-122.822;2022-11-15T17:45:22;11.00;;;7.53;;
6374;SDS011;35400;45.472;-122.822;2022-11-15T17:47:49;9.00;;;6.70;;
6374;SDS011;35400;45.472;-122.822;2022-11-15T17:50:16;10.17;;;7.17;;